sensor_id;sensor_type;location;lat;lon;timestamp;P1;durP1;ratioP1;P2;durP2;ratioP2
23360;SDS011;11852;50.082;18.554;2023-07-31T00:00:26;4.6;;;1.7;;
23360;SDS011;11852;50.082;18.554;2023-07-31T00:01:31;5.5;;;1.8;;
23360;SDS011;11852;50.082;18.554;2023-07-31T00:02:36;5.6;;;1.7;;
23360;SDS011;11852;50.082;18.554;2023-07-31T00:03:40;5.0;;;1.8;;
23360;SDS011;11852;50.082;18.554;2023-07-31T00:04:45;6.2;;;2.0;;
23360;SDS011;11852;50.082;18.554;2023-07-31T00:05:50;6.3;;;2.4;;
23360;SDS011;11852;50.082;18.554;2023-07-31T00:06:55;5.2;;;2.8;;
23360;SDS011;11852;50.082;18.554;2023-07-31T00:07:59;5.3;;;2.7;;
23360;SDS011;11852;50.082;18.554;2023-07-31T00:09:04;4.7;;;2.4;;
23360;SDS011;11852;50.082;18.554;2023-07-31T00:10:09;4.6;;;2.2;;
23360;SDS011;11852;50.082;18.554;2023-07-31T00:11:14;4.2;;;1.9;;
23360;SDS011;11852;50.082;18.554;2023-07-31T00:12:19;4.7;;;2.4;;
23360;SDS011;11852;50.082;18.554;2023-07-31T00:13:23;5.5;;;2.6;;
23360;SDS011;11852;50.082;18.554;2023-07-31T00:14:28;5.8;;;2.7;;
23360;SDS011;11852;50.082;18.554;2023-07-31T00:15:33;4.8;;;2.6;;
23360;SDS011;11852;50.082;18.554;2023-07-31T00:16:37;5.5;;;2.5;;
23360;SDS011;11852;50.082;18.554;2023-07-31T00:17:42;4.7;;;2.2;;
23360;SDS011;11852;50.082;18.554;2023-07-31T00:18:47;4.6;;;2.3;;
23360;SDS011;11852;50.082;18.554;2023-07-31T00:19:52;5.6;;;1.9;;
23360;SDS011;11852;50.082;18.554;2023-07-31T00:20:56;4.3;;;2.0;;
23360;SDS011;11852;50.082;18.554;2023-07-31T00:22:01;3.8;;;1.8;;
23360;SDS011;11852;50.082;18.554;2023-07-31T00:23:06;4.5;;;1.8;;
23360;SDS011;11852;50.082;18.554;2023-07-31T00:24:11;4.2;;;1.9;;
23360;SDS011;11852;50.082;18.554;2023-07-31T00:25:15;4.0;;;1.8;;
23360;SDS011;11852;50.082;18.554;2023-07-31T00:26:20;4.0;;;1.5;;
23360;SDS011;11852;50.082;18.554;2023-07-31T00:27:25;3.7;;;1.6;;
23360;SDS011;11852;50.082;18.554;2023-07-31T00:28:30;4.2;;;1.6;;
23360;SDS011;11852;50.082;18.554;2023-07-31T00:29:34;4.4;;;1.8;;
23360;SDS011;11852;50.082;18.554;2023-07-31T00:30:39;7.7;;;1.9;;
23360;SDS011;11852;50.082;18.554;2023-07-31T00:31:44;4.4;;;2.2;;
23360;SDS011;11852;50.082;18.554;2023-07-31T00:32:48;3.9;;;2.1;;
23360;SDS011;11852;50.082;18.554;2023-07-31T00:33:53;7.5;;;2.2;;
23360;SDS011;11852;50.082;18.554;2023-07-31T00:34:58;4.4;;;2.0;;
23360;SDS011;11852;50.082;18.554;2023-07-31T00:36:03;4.6;;;2.3;;
23360;SDS011;11852;50.082;18.554;2023-07-31T00:37:07;5.8;;;2.3;;
23360;SDS011;11852;50.082;18.554;2023-07-31T00:38:12;5.7;;;2.1;;
23360;SDS011;11852;50.082;18.554;2023-07-31T00:39:17;3.9;;;2.1;;
23360;SDS011;11852;50.082;18.554;2023-07-31T00:40:22;4.3;;;2.1;;
23360;SDS011;11852;50.082;18.554;2023-07-31T00:41:26;4.2;;;2.3;;
23360;SDS011;11852;50.082;18.554;2023-07-31T00:42:31;6.1;;;2.1;;
23360;SDS011;11852;50.082;18.554;2023-07-31T00:43:36;4.8;;;2.0;;
23360;SDS011;11852;50.082;18.554;2023-07-31T00:44:40;7.1;;;2.1;;
23360;SDS011;11852;50.082;18.554;2023-07-31T00:45:45;5.2;;;2.0;;
23360;SDS011;11852;50.082;18.554;2023-07-31T00:46:50;5.7;;;2.2;;
23360;SDS011;11852;50.082;18.554;2023-07-31T00:47:54;4.1;;;1.9;;
23360;SDS011;11852;50.082;18.554;2023-07-31T00:48:59;4.2;;;1.9;;
23360;SDS011;11852;50.082;18.554;2023-07-31T00:50:04;4.7;;;2.0;;
23360;SDS011;11852;50.082;18.554;2023-07-31T00:51:09;4.4;;;2.1;;
23360;SDS011;11852;50.082;18.554;2023-07-31T00:52:14;5.9;;;2.0;;
23360;SDS011;11852;50.082;18.554;2023-07-31T00:53:18;4.3;;;1.9;;
23360;SDS011;11852;50.082;18.554;2023-07-31T00:54:23;7.2;;;2.0;;
23360;SDS011;11852;50.082;18.554;2023-07-31T00:55:28;4.6;;;1.8;;
23360;SDS011;11852;50.082;18.554;2023-07-31T00:56:32;3.1;;;1.5;;
23360;SDS011;11852;50.082;18.554;2023-07-31T00:57:37;6.3;;;1.6;;
23360;SDS011;11852;50.082;18.554;2023-07-31T00:58:42;4.1;;;1.4;;
23360;SDS011;11852;50.082;18.554;2023-07-31T00:59:47;3.8;;;1.4;;
23360;SDS011;11852;50.082;18.554;2023-07-31T01:00:51;4.3;;;1.3;;
23360;SDS011;11852;50.082;18.554;2023-07-31T01:01:56;4.3;;;1.3;;
23360;SDS011;11852;50.082;18.554;2023-07-31T01:03:01;3.1;;;1.4;;
23360;SDS011;11852;50.082;18.554;2023-07-31T01:04:05;3.0;;;1.2;;
23360;SDS011;11852;50.082;18.554;2023-07-31T01:05:10;4.5;;;1.3;;
23360;SDS011;11852;50.082;18.554;2023-07-31T01:06:17;4.8;;;1.5;;
23360;SDS011;11852;50.082;18.554;2023-07-31T01:07:22;3.3;;;1.3;;
23360;SDS011;11852;50.082;18.554;2023-07-31T01:11:57;3.6;;;1.5;;
23360;SDS011;11852;50.082;18.554;2023-07-31T01:13:01;3.5;;;1.4;;
23360;SDS011;11852;50.082;18.554;2023-07-31T01:14:06;3.5;;;1.2;;
23360;SDS011;11852;50.082;18.554;2023-07-31T01:15:11;3.2;;;1.3;;
23360;SDS011;11852;50.082;18.554;2023-07-31T01:16:16;3.9;;;1.3;;
23360;SDS011;11852;50.082;18.554;2023-07-31T01:17:20;3.0;;;1.3;;
23360;SDS011;11852;50.082;18.554;2023-07-31T01:18:25;4.3;;;1.3;;
23360;SDS011;11852;50.082;18.554;2023-07-31T01:19:30;3.0;;;1.1;;
23360;SDS011;11852;50.082;18.554;2023-07-31T01:20:35;4.1;;;1.1;;
23360;SDS011;11852;50.082;18.554;2023-07-31T01:26:39;3.2;;;1.1;;
23360;SDS011;11852;50.082;18.554;2023-07-31T01:27:46;2.4;;;0.8;;
23360;SDS011;11852;50.082;18.554;2023-07-31T01:28:55;5.5;;;1.3;;
23360;SDS011;11852;50.082;18.554;2023-07-31T01:31:10;3.9;;;1.2;;
23360;SDS011;11852;50.082;18.554;2023-07-31T01:32:14;5.4;;;1.2;;
23360;SDS011;11852;50.082;18.554;2023-07-31T01:33:18;3.3;;;1.2;;
23360;SDS011;11852;50.082;18.554;2023-07-31T01:34:23;3.7;;;1.2;;
23360;SDS011;11852;50.082;18.554;2023-07-31T01:35:28;3.0;;;1.1;;
23360;SDS011;11852;50.082;18.554;2023-07-31T01:36:33;3.8;;;1.2;;
23360;SDS011;11852;50.082;18.554;2023-07-31T01:37:37;3.1;;;1.1;;
23360;SDS011;11852;50.082;18.554;2023-07-31T01:38:42;2.8;;;1.1;;
23360;SDS011;11852;50.082;18.554;2023-07-31T01:39:47;3.1;;;1.2;;
23360;SDS011;11852;50.082;18.554;2023-07-31T01:40:52;2.9;;;1.1;;
23360;SDS011;11852;50.082;18.554;2023-07-31T01:41:56;2.8;;;1.1;;
23360;SDS011;11852;50.082;18.554;2023-07-31T01:43:01;4.0;;;1.2;;
23360;SDS011;11852;50.082;18.554;2023-07-31T01:44:06;3.2;;;1.0;;
23360;SDS011;11852;50.082;18.554;2023-07-31T01:45:11;3.1;;;1.2;;
23360;SDS011;11852;50.082;18.554;2023-07-31T01:46:15;3.4;;;1.0;;
23360;SDS011;11852;50.082;18.554;2023-07-31T01:47:20;2.6;;;0.9;;
23360;SDS011;11852;50.082;18.554;2023-07-31T01:48:25;4.2;;;1.1;;
23360;SDS011;11852;50.082;18.554;2023-07-31T01:49:30;2.6;;;1.1;;
23360;SDS011;11852;50.082;18.554;2023-07-31T01:50:34;3.0;;;1.0;;
23360;SDS011;11852;50.082;18.554;2023-07-31T01:51:39;4.0;;;1.2;;
23360;SDS011;11852;50.082;18.554;2023-07-31T01:52:44;4.9;;;1.0;;
23360;SDS011;11852;50.082;18.554;2023-07-31T01:53:48;2.8;;;1.0;;
23360;SDS011;11852;50.082;18.554;2023-07-31T01:54:53;2.4;;;0.9;;
23360;SDS011;11852;50.082;18.554;2023-07-31T01:55:58;4.6;;;1.1;;
23360;SDS011;11852;50.082;18.554;2023-07-31T01:57:03;3.1;;;1.1;;
23360;SDS011;11852;50.082;18.554;2023-07-31T01:58:09;2.8;;;0.9;;
23360;SDS011;11852;50.082;18.554;2023-07-31T01:59:12;4.4;;;1.0;;
23360;SDS011;11852;50.082;18.554;2023-07-31T02:00:17;3.8;;;1.0;;
23360;SDS011;11852;50.082;18.554;2023-07-31T02:01:22;2.7;;;0.9;;
23360;SDS011;11852;50.082;18.554;2023-07-31T02:02:27;3.1;;;1.0;;
23360;SDS011;11852;50.082;18.554;2023-07-31T02:03:31;4.8;;;1.1;;
23360;SDS011;11852;50.082;18.554;2023-07-31T02:04:36;2.9;;;0.9;;
23360;SDS011;11852;50.082;18.554;2023-07-31T02:06:52;3.0;;;0.9;;
23360;SDS011;11852;50.082;18.554;2023-07-31T02:07:55;2.6;;;0.8;;
23360;SDS011;11852;50.082;18.554;2023-07-31T02:09:00;4.6;;;1.0;;
23360;SDS011;11852;50.082;18.554;2023-07-31T02:10:05;3.1;;;1.0;;
23360;SDS011;11852;50.082;18.554;2023-07-31T02:11:10;3.5;;;0.9;;
23360;SDS011;11852;50.082;18.554;2023-07-31T02:12:15;4.2;;;0.9;;
23360;SDS011;11852;50.082;18.554;2023-07-31T02:13:20;2.4;;;0.9;;
23360;SDS011;11852;50.082;18.554;2023-07-31T02:14:24;2.6;;;0.9;;
23360;SDS011;11852;50.082;18.554;2023-07-31T02:15:29;3.6;;;0.9;;
23360;SDS011;11852;50.082;18.554;2023-07-31T02:16:34;2.5;;;0.9;;
23360;SDS011;11852;50.082;18.554;2023-07-31T02:17:39;3.1;;;0.9;;
23360;SDS011;11852;50.082;18.554;2023-07-31T02:18:44;3.0;;;1.0;;
23360;SDS011;11852;50.082;18.554;2023-07-31T02:19:48;2.0;;;0.8;;
23360;SDS011;11852;50.082;18.554;2023-07-31T02:20:53;3.1;;;0.9;;
23360;SDS011;11852;50.082;18.554;2023-07-31T02:21:58;2.5;;;0.9;;
23360;SDS011;11852;50.082;18.554;2023-07-31T02:23:03;2.7;;;1.0;;
23360;SDS011;11852;50.082;18.554;2023-07-31T02:24:07;3.1;;;0.9;;
23360;SDS011;11852;50.082;18.554;2023-07-31T02:25:12;3.3;;;1.0;;
23360;SDS011;11852;50.082;18.554;2023-07-31T02:26:17;3.5;;;0.8;;
23360;SDS011;11852;50.082;18.554;2023-07-31T02:27:22;3.3;;;1.1;;
23360;SDS011;11852;50.082;18.554;2023-07-31T02:28:26;2.8;;;1.0;;
23360;SDS011;11852;50.082;18.554;2023-07-31T02:29:31;4.0;;;0.9;;
23360;SDS011;11852;50.082;18.554;2023-07-31T02:30:36;3.3;;;0.9;;
23360;SDS011;11852;50.082;18.554;2023-07-31T02:31:41;4.0;;;1.2;;
23360;SDS011;11852;50.082;18.554;2023-07-31T02:32:45;3.4;;;1.0;;
23360;SDS011;11852;50.082;18.554;2023-07-31T02:33:50;3.5;;;1.0;;
23360;SDS011;11852;50.082;18.554;2023-07-31T02:34:55;4.4;;;1.1;;
23360;SDS011;11852;50.082;18.554;2023-07-31T02:35:59;3.6;;;1.0;;
23360;SDS011;11852;50.082;18.554;2023-07-31T02:37:04;4.0;;;1.1;;
23360;SDS011;11852;50.082;18.554;2023-07-31T02:38:09;3.8;;;1.1;;
23360;SDS011;11852;50.082;18.554;2023-07-31T02:39:14;3.2;;;0.9;;
23360;SDS011;11852;50.082;18.554;2023-07-31T02:40:19;4.1;;;1.0;;
23360;SDS011;11852;50.082;18.554;2023-07-31T02:41:23;3.5;;;0.9;;
23360;SDS011;11852;50.082;18.554;2023-07-31T02:42:28;4.1;;;0.8;;
23360;SDS011;11852;50.082;18.554;2023-07-31T02:43:33;5.1;;;1.1;;
23360;SDS011;11852;50.082;18.554;2023-07-31T02:44:38;3.9;;;1.0;;
23360;SDS011;11852;50.082;18.554;2023-07-31T02:45:42;3.1;;;1.0;;
23360;SDS011;11852;50.082;18.554;2023-07-31T02:46:47;5.2;;;1.2;;
23360;SDS011;11852;50.082;18.554;2023-07-31T02:47:52;2.4;;;0.9;;
23360;SDS011;11852;50.082;18.554;2023-07-31T02:48:56;3.3;;;0.8;;
23360;SDS011;11852;50.082;18.554;2023-07-31T02:50:02;4.8;;;1.0;;
23360;SDS011;11852;50.082;18.554;2023-07-31T02:51:06;2.4;;;0.8;;
23360;SDS011;11852;50.082;18.554;2023-07-31T02:52:11;4.3;;;1.1;;
23360;SDS011;11852;50.082;18.554;2023-07-31T02:53:15;3.6;;;0.9;;
23360;SDS011;11852;50.082;18.554;2023-07-31T02:54:20;4.2;;;0.9;;
23360;SDS011;11852;50.082;18.554;2023-07-31T02:55:25;3.3;;;0.8;;
23360;SDS011;11852;50.082;18.554;2023-07-31T02:56:30;3.9;;;0.9;;
23360;SDS011;11852;50.082;18.554;2023-07-31T02:57:34;4.0;;;1.2;;
23360;SDS011;11852;50.082;18.554;2023-07-31T02:58:39;2.9;;;0.8;;
23360;SDS011;11852;50.082;18.554;2023-07-31T02:59:44;2.7;;;0.8;;
23360;SDS011;11852;50.082;18.554;2023-07-31T03:00:49;4.2;;;0.9;;
23360;SDS011;11852;50.082;18.554;2023-07-31T03:01:53;5.0;;;1.0;;
23360;SDS011;11852;50.082;18.554;2023-07-31T03:02:58;2.8;;;0.9;;
23360;SDS011;11852;50.082;18.554;2023-07-31T03:04:03;3.1;;;0.9;;
23360;SDS011;11852;50.082;18.554;2023-07-31T03:05:08;3.2;;;0.9;;
23360;SDS011;11852;50.082;18.554;2023-07-31T03:06:12;3.3;;;0.7;;
23360;SDS011;11852;50.082;18.554;2023-07-31T03:07:17;3.9;;;0.9;;
23360;SDS011;11852;50.082;18.554;2023-07-31T03:08:22;2.6;;;0.8;;
23360;SDS011;11852;50.082;18.554;2023-07-31T03:09:27;3.3;;;0.9;;
23360;SDS011;11852;50.082;18.554;2023-07-31T03:10:31;4.2;;;0.9;;
23360;SDS011;11852;50.082;18.554;2023-07-31T03:11:36;3.4;;;0.9;;
23360;SDS011;11852;50.082;18.554;2023-07-31T03:12:41;3.7;;;1.1;;
23360;SDS011;11852;50.082;18.554;2023-07-31T03:13:45;4.8;;;1.0;;
23360;SDS011;11852;50.082;18.554;2023-07-31T03:14:50;2.9;;;1.0;;
23360;SDS011;11852;50.082;18.554;2023-07-31T03:15:55;3.2;;;1.0;;
23360;SDS011;11852;50.082;18.554;2023-07-31T03:16:59;4.2;;;1.1;;
23360;SDS011;11852;50.082;18.554;2023-07-31T03:18:04;2.9;;;1.1;;
23360;SDS011;11852;50.082;18.554;2023-07-31T03:19:09;3.1;;;1.0;;
23360;SDS011;11852;50.082;18.554;2023-07-31T03:20:14;3.2;;;1.1;;
23360;SDS011;11852;50.082;18.554;2023-07-31T03:21:18;4.4;;;1.2;;
23360;SDS011;11852;50.082;18.554;2023-07-31T03:22:23;3.3;;;0.9;;
23360;SDS011;11852;50.082;18.554;2023-07-31T03:23:28;2.8;;;0.9;;
23360;SDS011;11852;50.082;18.554;2023-07-31T03:24:32;2.4;;;0.9;;
23360;SDS011;11852;50.082;18.554;2023-07-31T03:25:37;2.7;;;0.9;;
23360;SDS011;11852;50.082;18.554;2023-07-31T03:26:42;2.5;;;0.9;;
23360;SDS011;11852;50.082;18.554;2023-07-31T03:27:47;3.5;;;0.9;;
23360;SDS011;11852;50.082;18.554;2023-07-31T03:28:52;3.5;;;0.9;;
23360;SDS011;11852;50.082;18.554;2023-07-31T03:29:56;2.8;;;1.0;;
23360;SDS011;11852;50.082;18.554;2023-07-31T03:31:01;3.5;;;1.0;;
23360;SDS011;11852;50.082;18.554;2023-07-31T03:32:06;4.2;;;1.0;;
23360;SDS011;11852;50.082;18.554;2023-07-31T03:33:10;4.1;;;0.9;;
23360;SDS011;11852;50.082;18.554;2023-07-31T03:34:15;5.0;;;1.1;;
23360;SDS011;11852;50.082;18.554;2023-07-31T03:35:20;3.4;;;0.9;;
23360;SDS011;11852;50.082;18.554;2023-07-31T03:36:25;3.5;;;1.0;;
23360;SDS011;11852;50.082;18.554;2023-07-31T03:37:29;3.3;;;1.0;;
23360;SDS011;11852;50.082;18.554;2023-07-31T03:38:34;3.7;;;1.2;;
23360;SDS011;11852;50.082;18.554;2023-07-31T03:39:39;3.2;;;0.9;;
23360;SDS011;11852;50.082;18.554;2023-07-31T03:40:44;3.5;;;1.0;;
23360;SDS011;11852;50.082;18.554;2023-07-31T03:41:48;3.3;;;1.1;;
23360;SDS011;11852;50.082;18.554;2023-07-31T03:42:53;3.4;;;1.1;;
23360;SDS011;11852;50.082;18.554;2023-07-31T03:43:58;3.5;;;1.0;;
23360;SDS011;11852;50.082;18.554;2023-07-31T03:45:03;4.5;;;1.2;;
23360;SDS011;11852;50.082;18.554;2023-07-31T03:46:08;3.6;;;1.2;;
23360;SDS011;11852;50.082;18.554;2023-07-31T03:47:12;2.2;;;1.0;;
23360;SDS011;11852;50.082;18.554;2023-07-31T03:48:17;5.8;;;1.1;;
23360;SDS011;11852;50.082;18.554;2023-07-31T03:49:22;4.9;;;1.2;;
23360;SDS011;11852;50.082;18.554;2023-07-31T03:50:27;3.7;;;1.1;;
23360;SDS011;11852;50.082;18.554;2023-07-31T03:51:31;3.9;;;1.1;;
23360;SDS011;11852;50.082;18.554;2023-07-31T03:52:36;3.6;;;0.9;;
23360;SDS011;11852;50.082;18.554;2023-07-31T03:53:41;3.7;;;1.1;;
23360;SDS011;11852;50.082;18.554;2023-07-31T03:54:46;3.7;;;1.0;;
23360;SDS011;11852;50.082;18.554;2023-07-31T03:55:50;3.6;;;1.0;;
23360;SDS011;11852;50.082;18.554;2023-07-31T03:56:55;3.5;;;1.1;;
23360;SDS011;11852;50.082;18.554;2023-07-31T03:58:00;4.6;;;1.0;;
23360;SDS011;11852;50.082;18.554;2023-07-31T03:59:05;3.6;;;1.0;;
23360;SDS011;11852;50.082;18.554;2023-07-31T04:00:10;3.8;;;1.0;;
23360;SDS011;11852;50.082;18.554;2023-07-31T04:01:14;4.2;;;1.0;;
23360;SDS011;11852;50.082;18.554;2023-07-31T04:02:19;4.8;;;1.3;;
23360;SDS011;11852;50.082;18.554;2023-07-31T04:03:24;3.4;;;1.2;;
23360;SDS011;11852;50.082;18.554;2023-07-31T04:04:29;3.4;;;1.0;;
23360;SDS011;11852;50.082;18.554;2023-07-31T04:05:37;3.8;;;1.0;;
23360;SDS011;11852;50.082;18.554;2023-07-31T04:06:38;3.7;;;1.0;;
23360;SDS011;11852;50.082;18.554;2023-07-31T04:07:43;3.4;;;1.0;;
23360;SDS011;11852;50.082;18.554;2023-07-31T04:08:48;4.1;;;1.0;;
23360;SDS011;11852;50.082;18.554;2023-07-31T04:09:53;4.6;;;1.0;;
23360;SDS011;11852;50.082;18.554;2023-07-31T04:10:57;3.3;;;1.1;;
23360;SDS011;11852;50.082;18.554;2023-07-31T04:12:02;5.8;;;1.0;;
23360;SDS011;11852;50.082;18.554;2023-07-31T04:13:07;4.9;;;1.0;;
23360;SDS011;11852;50.082;18.554;2023-07-31T04:14:12;3.7;;;1.1;;
23360;SDS011;11852;50.082;18.554;2023-07-31T04:15:16;8.2;;;1.2;;
23360;SDS011;11852;50.082;18.554;2023-07-31T04:16:21;4.7;;;1.2;;
23360;SDS011;11852;50.082;18.554;2023-07-31T04:17:26;4.8;;;1.1;;
23360;SDS011;11852;50.082;18.554;2023-07-31T04:18:30;4.1;;;1.3;;
23360;SDS011;11852;50.082;18.554;2023-07-31T04:19:35;5.9;;;1.5;;
23360;SDS011;11852;50.082;18.554;2023-07-31T04:20:40;6.9;;;1.4;;
23360;SDS011;11852;50.082;18.554;2023-07-31T04:21:45;5.9;;;1.5;;
23360;SDS011;11852;50.082;18.554;2023-07-31T04:22:49;8.5;;;1.7;;
23360;SDS011;11852;50.082;18.554;2023-07-31T04:23:54;5.1;;;1.3;;
23360;SDS011;11852;50.082;18.554;2023-07-31T04:24:59;6.5;;;1.5;;
23360;SDS011;11852;50.082;18.554;2023-07-31T04:26:03;5.5;;;1.3;;
23360;SDS011;11852;50.082;18.554;2023-07-31T04:27:08;6.6;;;1.2;;
23360;SDS011;11852;50.082;18.554;2023-07-31T04:28:13;3.6;;;1.2;;
23360;SDS011;11852;50.082;18.554;2023-07-31T04:29:18;6.3;;;1.1;;
23360;SDS011;11852;50.082;18.554;2023-07-31T04:30:22;4.7;;;1.2;;
23360;SDS011;11852;50.082;18.554;2023-07-31T04:31:27;7.6;;;1.1;;
23360;SDS011;11852;50.082;18.554;2023-07-31T04:32:32;5.9;;;1.2;;
23360;SDS011;11852;50.082;18.554;2023-07-31T04:33:37;5.0;;;1.2;;
23360;SDS011;11852;50.082;18.554;2023-07-31T04:34:41;5.8;;;1.2;;
23360;SDS011;11852;50.082;18.554;2023-07-31T04:35:50;4.8;;;1.1;;
23360;SDS011;11852;50.082;18.554;2023-07-31T04:36:54;4.1;;;1.2;;
23360;SDS011;11852;50.082;18.554;2023-07-31T04:37:59;3.4;;;1.1;;
23360;SDS011;11852;50.082;18.554;2023-07-31T04:39:03;3.5;;;0.9;;
23360;SDS011;11852;50.082;18.554;2023-07-31T04:40:08;4.1;;;1.0;;
23360;SDS011;11852;50.082;18.554;2023-07-31T04:41:13;4.6;;;1.1;;
23360;SDS011;11852;50.082;18.554;2023-07-31T04:42:18;4.8;;;1.1;;
23360;SDS011;11852;50.082;18.554;2023-07-31T04:43:23;4.7;;;1.0;;
23360;SDS011;11852;50.082;18.554;2023-07-31T04:44:27;6.7;;;1.3;;
23360;SDS011;11852;50.082;18.554;2023-07-31T04:45:32;5.2;;;1.1;;
23360;SDS011;11852;50.082;18.554;2023-07-31T04:46:37;3.7;;;0.9;;
23360;SDS011;11852;50.082;18.554;2023-07-31T04:47:42;4.4;;;1.0;;
23360;SDS011;11852;50.082;18.554;2023-07-31T04:48:47;3.8;;;0.8;;
23360;SDS011;11852;50.082;18.554;2023-07-31T04:49:52;4.8;;;1.0;;
23360;SDS011;11852;50.082;18.554;2023-07-31T04:50:56;3.8;;;0.9;;
23360;SDS011;11852;50.082;18.554;2023-07-31T04:52:01;4.3;;;1.1;;
23360;SDS011;11852;50.082;18.554;2023-07-31T04:53:06;3.6;;;1.1;;
23360;SDS011;11852;50.082;18.554;2023-07-31T04:54:10;5.0;;;1.0;;
23360;SDS011;11852;50.082;18.554;2023-07-31T04:55:15;3.9;;;1.0;;
23360;SDS011;11852;50.082;18.554;2023-07-31T04:56:20;4.8;;;1.2;;
23360;SDS011;11852;50.082;18.554;2023-07-31T04:57:25;3.2;;;0.9;;
23360;SDS011;11852;50.082;18.554;2023-07-31T04:58:30;4.7;;;0.9;;
23360;SDS011;11852;50.082;18.554;2023-07-31T04:59:34;3.0;;;1.0;;
23360;SDS011;11852;50.082;18.554;2023-07-31T05:00:39;4.6;;;1.0;;
23360;SDS011;11852;50.082;18.554;2023-07-31T05:01:44;3.6;;;1.0;;
23360;SDS011;11852;50.082;18.554;2023-07-31T05:02:49;4.8;;;1.0;;
23360;SDS011;11852;50.082;18.554;2023-07-31T05:03:53;3.6;;;0.9;;
23360;SDS011;11852;50.082;18.554;2023-07-31T05:04:58;3.8;;;0.9;;
23360;SDS011;11852;50.082;18.554;2023-07-31T05:06:03;4.0;;;0.9;;
23360;SDS011;11852;50.082;18.554;2023-07-31T05:07:08;4.7;;;1.0;;
23360;SDS011;11852;50.082;18.554;2023-07-31T05:08:13;5.4;;;1.0;;
23360;SDS011;11852;50.082;18.554;2023-07-31T05:09:17;2.8;;;1.0;;
23360;SDS011;11852;50.082;18.554;2023-07-31T05:10:22;4.9;;;1.1;;
23360;SDS011;11852;50.082;18.554;2023-07-31T05:11:27;4.9;;;1.1;;
23360;SDS011;11852;50.082;18.554;2023-07-31T05:12:32;3.7;;;0.9;;
23360;SDS011;11852;50.082;18.554;2023-07-31T05:13:36;4.5;;;1.1;;
23360;SDS011;11852;50.082;18.554;2023-07-31T05:14:41;3.2;;;1.0;;
23360;SDS011;11852;50.082;18.554;2023-07-31T05:15:46;5.1;;;1.2;;
23360;SDS011;11852;50.082;18.554;2023-07-31T05:16:51;4.4;;;1.2;;
23360;SDS011;11852;50.082;18.554;2023-07-31T05:17:55;3.1;;;1.1;;
23360;SDS011;11852;50.082;18.554;2023-07-31T05:19:00;5.4;;;0.9;;
23360;SDS011;11852;50.082;18.554;2023-07-31T05:20:05;3.2;;;0.9;;
23360;SDS011;11852;50.082;18.554;2023-07-31T05:21:10;3.6;;;1.0;;
23360;SDS011;11852;50.082;18.554;2023-07-31T05:22:15;3.5;;;1.0;;
23360;SDS011;11852;50.082;18.554;2023-07-31T05:23:20;3.2;;;1.0;;
23360;SDS011;11852;50.082;18.554;2023-07-31T05:24:24;3.1;;;0.8;;
23360;SDS011;11852;50.082;18.554;2023-07-31T05:25:29;4.3;;;1.0;;
23360;SDS011;11852;50.082;18.554;2023-07-31T05:26:34;3.9;;;1.0;;
23360;SDS011;11852;50.082;18.554;2023-07-31T05:27:39;6.8;;;1.4;;
23360;SDS011;11852;50.082;18.554;2023-07-31T05:28:43;3.8;;;1.0;;
23360;SDS011;11852;50.082;18.554;2023-07-31T05:29:48;3.9;;;1.1;;
23360;SDS011;11852;50.082;18.554;2023-07-31T05:30:58;5.1;;;1.1;;
23360;SDS011;11852;50.082;18.554;2023-07-31T05:31:58;4.0;;;1.1;;
23360;SDS011;11852;50.082;18.554;2023-07-31T05:33:02;3.6;;;1.1;;
23360;SDS011;11852;50.082;18.554;2023-07-31T05:34:13;4.3;;;1.1;;
23360;SDS011;11852;50.082;18.554;2023-07-31T05:35:18;3.5;;;0.9;;
23360;SDS011;11852;50.082;18.554;2023-07-31T05:36:23;2.8;;;0.9;;
23360;SDS011;11852;50.082;18.554;2023-07-31T05:37:28;5.8;;;1.1;;
23360;SDS011;11852;50.082;18.554;2023-07-31T05:38:32;2.6;;;1.0;;
23360;SDS011;11852;50.082;18.554;2023-07-31T05:39:37;3.7;;;1.1;;
23360;SDS011;11852;50.082;18.554;2023-07-31T05:40:42;4.5;;;1.0;;
23360;SDS011;11852;50.082;18.554;2023-07-31T05:41:47;3.6;;;0.9;;
23360;SDS011;11852;50.082;18.554;2023-07-31T05:42:51;4.3;;;1.2;;
23360;SDS011;11852;50.082;18.554;2023-07-31T05:43:56;4.5;;;1.1;;
23360;SDS011;11852;50.082;18.554;2023-07-31T05:45:01;4.0;;;1.0;;
23360;SDS011;11852;50.082;18.554;2023-07-31T05:46:06;5.5;;;1.2;;
23360;SDS011;11852;50.082;18.554;2023-07-31T05:47:10;3.1;;;1.0;;
23360;SDS011;11852;50.082;18.554;2023-07-31T05:48:15;3.9;;;1.1;;
23360;SDS011;11852;50.082;18.554;2023-07-31T05:49:20;3.8;;;1.1;;
23360;SDS011;11852;50.082;18.554;2023-07-31T05:50:25;4.9;;;1.3;;
23360;SDS011;11852;50.082;18.554;2023-07-31T05:51:29;4.8;;;1.1;;
23360;SDS011;11852;50.082;18.554;2023-07-31T05:52:34;3.8;;;1.1;;
23360;SDS011;11852;50.082;18.554;2023-07-31T05:53:39;3.1;;;1.1;;
23360;SDS011;11852;50.082;18.554;2023-07-31T05:54:44;3.8;;;1.1;;
23360;SDS011;11852;50.082;18.554;2023-07-31T05:55:48;4.1;;;1.1;;
23360;SDS011;11852;50.082;18.554;2023-07-31T05:56:53;4.5;;;1.2;;
23360;SDS011;11852;50.082;18.554;2023-07-31T05:57:58;3.0;;;0.9;;
23360;SDS011;11852;50.082;18.554;2023-07-31T05:59:03;5.5;;;1.2;;
23360;SDS011;11852;50.082;18.554;2023-07-31T06:00:08;3.8;;;1.1;;
23360;SDS011;11852;50.082;18.554;2023-07-31T06:01:12;3.9;;;1.0;;
23360;SDS011;11852;50.082;18.554;2023-07-31T06:02:17;4.7;;;1.2;;
23360;SDS011;11852;50.082;18.554;2023-07-31T06:03:22;3.6;;;0.9;;
23360;SDS011;11852;50.082;18.554;2023-07-31T06:04:27;3.8;;;1.0;;
23360;SDS011;11852;50.082;18.554;2023-07-31T06:05:32;5.0;;;1.0;;
23360;SDS011;11852;50.082;18.554;2023-07-31T06:06:36;5.8;;;0.9;;
23360;SDS011;11852;50.082;18.554;2023-07-31T06:07:41;7.6;;;1.1;;
23360;SDS011;11852;50.082;18.554;2023-07-31T06:08:46;4.0;;;1.1;;
23360;SDS011;11852;50.082;18.554;2023-07-31T06:09:50;4.1;;;1.1;;
23360;SDS011;11852;50.082;18.554;2023-07-31T06:10:55;4.2;;;1.0;;
23360;SDS011;11852;50.082;18.554;2023-07-31T06:12:00;3.6;;;1.0;;
23360;SDS011;11852;50.082;18.554;2023-07-31T06:13:05;4.1;;;1.0;;
23360;SDS011;11852;50.082;18.554;2023-07-31T06:14:09;5.0;;;1.0;;
23360;SDS011;11852;50.082;18.554;2023-07-31T06:15:14;4.2;;;0.9;;
23360;SDS011;11852;50.082;18.554;2023-07-31T06:16:19;4.1;;;1.1;;
23360;SDS011;11852;50.082;18.554;2023-07-31T06:17:23;4.3;;;1.0;;
23360;SDS011;11852;50.082;18.554;2023-07-31T06:18:28;4.4;;;1.3;;
23360;SDS011;11852;50.082;18.554;2023-07-31T06:19:33;6.5;;;1.4;;
23360;SDS011;11852;50.082;18.554;2023-07-31T06:20:38;4.1;;;1.1;;
23360;SDS011;11852;50.082;18.554;2023-07-31T06:21:43;4.9;;;1.4;;
23360;SDS011;11852;50.082;18.554;2023-07-31T06:22:47;3.6;;;1.1;;
23360;SDS011;11852;50.082;18.554;2023-07-31T06:23:52;4.5;;;1.2;;
23360;SDS011;11852;50.082;18.554;2023-07-31T06:24:57;6.2;;;1.4;;
23360;SDS011;11852;50.082;18.554;2023-07-31T06:26:01;5.1;;;1.3;;
23360;SDS011;11852;50.082;18.554;2023-07-31T06:27:06;4.9;;;1.2;;
23360;SDS011;11852;50.082;18.554;2023-07-31T06:28:11;6.0;;;1.2;;
23360;SDS011;11852;50.082;18.554;2023-07-31T06:29:16;5.4;;;1.3;;
23360;SDS011;11852;50.082;18.554;2023-07-31T06:30:20;4.7;;;1.3;;
23360;SDS011;11852;50.082;18.554;2023-07-31T06:31:25;7.2;;;1.3;;
23360;SDS011;11852;50.082;18.554;2023-07-31T06:32:30;4.6;;;1.4;;
23360;SDS011;11852;50.082;18.554;2023-07-31T06:33:35;5.0;;;1.4;;
23360;SDS011;11852;50.082;18.554;2023-07-31T06:34:39;5.3;;;1.3;;
23360;SDS011;11852;50.082;18.554;2023-07-31T06:35:44;4.3;;;1.5;;
23360;SDS011;11852;50.082;18.554;2023-07-31T06:36:49;5.4;;;1.4;;
23360;SDS011;11852;50.082;18.554;2023-07-31T06:37:53;5.3;;;1.4;;
23360;SDS011;11852;50.082;18.554;2023-07-31T06:38:58;4.5;;;1.3;;
23360;SDS011;11852;50.082;18.554;2023-07-31T06:40:03;5.0;;;1.4;;
23360;SDS011;11852;50.082;18.554;2023-07-31T06:41:08;4.8;;;1.3;;
23360;SDS011;11852;50.082;18.554;2023-07-31T06:42:13;3.6;;;1.1;;
23360;SDS011;11852;50.082;18.554;2023-07-31T06:43:18;4.3;;;1.4;;
23360;SDS011;11852;50.082;18.554;2023-07-31T06:44:28;4.3;;;1.6;;
23360;SDS011;11852;50.082;18.554;2023-07-31T06:45:33;5.5;;;1.6;;
23360;SDS011;11852;50.082;18.554;2023-07-31T06:46:37;7.0;;;1.5;;